Terminal Aerodrome Forecast
Issued by NWS Knoxville/Tri Cities, TN

Home | Current Version | Previous Version | Text Only | Print | Product List | Glossary On
Versions: 1 2 3 4 5 6 7 8 9 10 11 12 13 14 15 16 17 18 19 20 21
000
FTUS44 KMRX 052320
TAFCHA
TAF
KCHA 052320Z 0600/0624 VRB03KT 3SM -RA BR OVC010
     FM060600 05008KT 2SM -RA BR OVC004 WS020/19045KT
     FM061400 14005KT 2SM -RA BR OVC004
     FM061900 27010KT 4SM BR OVC007=

USA.gov is the U.S. government's official web portal to all federal, state and local government web resources and services.